createdAt,value
2023-05-22T00:02:39.093Z,57.37
2023-05-22T00:05:41.561Z,57.13
2023-05-22T00:08:44.274Z,58.10
2023-05-22T00:11:46.958Z,57.98
2023-05-22T00:14:49.382Z,56.98
2023-05-22T00:17:54.095Z,57.38
2023-05-22T00:20:56.540Z,57.76
2023-05-22T00:23:58.934Z,57.82
2023-05-22T00:27:01.272Z,57.11
2023-05-22T00:30:04.213Z,58.14
2023-05-22T00:33:06.590Z,58.23
2023-05-22T00:36:09.242Z,58.36
2023-05-22T00:39:11.547Z,57.68
2023-05-22T00:42:14.201Z,58.34
2023-05-22T00:45:17.015Z,58.14
2023-05-22T00:48:19.438Z,58.32
2023-05-22T00:51:22.513Z,57.50
2023-05-22T00:54:24.947Z,58.13
2023-05-22T00:57:27.454Z,58.38
2023-05-22T01:00:30.270Z,58.02
2023-05-22T01:03:33.886Z,57.47
2023-05-22T01:06:36.378Z,58.55
2023-05-22T01:09:38.767Z,57.82
2023-05-22T01:12:55.833Z,58.09
2023-05-22T01:16:30.388Z,58.93
2023-05-22T01:19:41.778Z,59.40
2023-05-22T01:23:21.336Z,59.22
2023-05-22T01:26:59.929Z,58.61
2023-05-22T01:30:05.526Z,58.48
2023-05-22T01:33:08.692Z,59.25
2023-05-22T01:36:13.462Z,59.30
2023-05-22T01:39:17.172Z,59.21
2023-05-22T01:42:21.031Z,59.19
2023-05-22T01:45:23.537Z,58.81
2023-05-22T01:48:25.868Z,58.80
2023-05-22T01:51:53.987Z,58.61
2023-05-22T01:55:03.752Z,58.96
2023-05-22T01:58:39.134Z,58.80
2023-05-22T02:01:43.508Z,58.38
2023-05-22T02:04:49.950Z,58.38
2023-05-22T02:07:53.651Z,58.65
2023-05-22T02:10:56.941Z,56.94
2023-05-22T02:13:59.544Z,58.08
2023-05-22T02:17:02.262Z,57.99
2023-05-22T02:20:05.457Z,57.16
2023-05-22T02:23:15.256Z,57.64
2023-05-22T02:26:17.664Z,57.28
2023-05-22T02:29:20.057Z,57.67
2023-05-22T02:32:22.747Z,57.46
2023-05-22T02:35:25.151Z,57.52
2023-05-22T02:38:27.912Z,57.51
2023-05-22T02:41:30.889Z,57.94
2023-05-22T02:44:33.239Z,57.12
2023-05-22T02:47:35.663Z,57.76
2023-05-22T02:50:38.252Z,57.77
2023-05-22T02:53:41.598Z,57.86
2023-05-22T02:56:44.032Z,58.34
2023-05-22T02:59:46.464Z,59.00
2023-05-22T03:02:49.477Z,58.58
2023-05-22T03:05:58.322Z,58.91
2023-05-22T03:09:01.243Z,58.84
2023-05-22T03:12:05.156Z,59.13
2023-05-22T03:15:08.026Z,60.17
2023-05-22T03:18:11.430Z,59.64
2023-05-22T03:21:14.801Z,59.70
2023-05-22T03:24:17.409Z,59.49
2023-05-22T03:27:20.363Z,59.43
2023-05-22T03:30:24.284Z,59.67
2023-05-22T03:33:56.407Z,59.35
2023-05-22T03:36:58.799Z,58.63
2023-05-22T03:40:01.410Z,59.14
2023-05-22T03:43:06.022Z,58.46
2023-05-22T03:46:10.798Z,58.46
2023-05-22T03:49:13.994Z,58.75
2023-05-22T03:52:16.334Z,59.02
2023-05-22T03:55:18.683Z,58.92
2023-05-22T03:58:21.076Z,58.87
2023-05-22T04:01:24.079Z,58.73
2023-05-22T04:04:27.521Z,58.37
2023-05-22T04:07:29.864Z,58.35
2023-05-22T04:10:38.359Z,58.30
2023-05-22T04:13:50.427Z,57.56
2023-05-22T04:16:53.961Z,57.13
2023-05-22T04:19:58.370Z,56.91
2023-05-22T04:23:04.647Z,56.63
2023-05-22T04:26:14.606Z,55.88
2023-05-22T04:29:17.010Z,54.94
2023-05-22T04:32:21.851Z,55.06
2023-05-22T04:35:24.501Z,54.04
2023-05-22T04:38:28.560Z,55.17
2023-05-22T04:41:32.557Z,56.05
2023-05-22T04:44:35.727Z,56.18
2023-05-22T04:47:38.484Z,56.43
2023-05-22T04:50:46.405Z,55.87
2023-05-22T04:53:49.908Z,56.84
2023-05-22T04:56:52.665Z,53.86
2023-05-22T04:59:55.128Z,52.97
2023-05-22T05:02:57.789Z,52.49
2023-05-22T05:06:01.016Z,57.64
2023-05-22T05:09:04.593Z,54.53
2023-05-22T05:12:07.138Z,53.34
2023-05-22T05:15:10.027Z,53.88
2023-05-22T05:18:12.635Z,52.61
2023-05-22T05:21:15.294Z,51.27
2023-05-22T05:24:18.589Z,53.11
2023-05-22T05:27:21.876Z,53.27
2023-05-22T05:30:24.236Z,52.73
2023-05-22T05:33:41.738Z,52.66
2023-05-22T05:36:50.385Z,51.35
2023-05-22T05:39:53.107Z,50.81
2023-05-22T05:42:58.838Z,50.38
2023-05-22T05:46:04.279Z,50.24
2023-05-22T05:49:11.283Z,49.99
2023-05-22T05:52:16.039Z,50.72
2023-05-22T06:01:44.776Z,51.82
2023-05-22T06:04:54.012Z,54.14
2023-05-22T06:07:58.514Z,51.49
2023-05-22T06:11:01.483Z,51.53
2023-05-22T06:14:13.978Z,53.08
2023-05-22T06:17:16.957Z,52.13
2023-05-22T06:20:20.592Z,49.96
2023-05-22T06:23:23.529Z,45.13
2023-05-22T06:26:26.438Z,43.54
2023-05-22T06:29:29.000Z,43.85
2023-05-22T06:32:32.752Z,41.66
2023-05-22T06:35:35.307Z,40.57
2023-05-22T06:38:38.200Z,39.45
2023-05-22T06:41:43.443Z,39.38
2023-05-22T06:44:48.352Z,36.14
2023-05-22T06:47:54.485Z,36.35
2023-05-22T06:50:57.543Z,35.70
2023-05-22T06:54:01.184Z,34.32
2023-05-22T06:57:07.102Z,35.27
2023-05-22T07:00:15.918Z,35.79
2023-05-22T07:03:39.698Z,36.15
2023-05-22T07:07:09.452Z,38.56
2023-05-22T07:10:12.115Z,38.36
2023-05-22T07:13:14.759Z,38.04
2023-05-22T07:16:17.394Z,39.48
2023-05-22T07:19:21.467Z,40.55
2023-05-22T07:22:24.067Z,39.53
2023-05-22T07:25:26.564Z,39.90
2023-05-22T07:28:30.100Z,41.29
2023-05-22T07:31:46.452Z,42.88
2023-05-22T07:34:49.214Z,41.25
2023-05-22T07:37:51.953Z,40.67
2023-05-22T07:40:54.352Z,40.57
2023-05-22T07:43:57.806Z,40.31
2023-05-22T07:47:05.888Z,40.78
2023-05-22T07:50:10.016Z,42.95
2023-05-22T07:53:16.828Z,40.91
2023-05-22T07:56:20.863Z,40.28
2023-05-22T07:59:25.650Z,43.62
2023-05-22T08:02:31.796Z,39.48
2023-05-22T08:05:34.277Z,40.27
2023-05-22T08:08:36.715Z,35.45
2023-05-22T08:11:42.207Z,36.29
2023-05-22T08:14:44.588Z,38.69
2023-05-22T08:17:47.108Z,40.88
2023-05-22T08:20:49.584Z,37.51
2023-05-22T08:23:51.957Z,39.91
2023-05-22T08:26:56.129Z,34.98
2023-05-22T08:29:58.501Z,34.11
2023-05-22T08:33:01.072Z,34.19
2023-05-22T08:36:03.694Z,33.28
2023-05-22T08:39:07.498Z,35.25
2023-05-22T08:42:10.057Z,33.74
2023-05-22T08:45:12.897Z,35.87
2023-05-22T08:48:17.928Z,35.38
2023-05-22T08:51:21.547Z,34.87
2023-05-22T08:54:26.181Z,35.31
2023-05-22T08:57:29.394Z,32.65
2023-05-22T09:00:45.531Z,33.41
2023-05-22T09:03:51.363Z,33.60
2023-05-22T09:06:55.210Z,34.11
2023-05-22T09:09:57.533Z,32.67
2023-05-22T09:13:04.510Z,32.42
2023-05-22T09:16:11.820Z,30.86
2023-05-22T09:19:15.135Z,31.95
2023-05-22T09:22:18.042Z,31.99
2023-05-22T09:25:22.765Z,31.59
2023-05-22T09:28:25.564Z,33.33
2023-05-22T09:31:31.738Z,32.17
2023-05-22T09:34:34.315Z,33.77
2023-05-22T09:37:37.225Z,32.99
2023-05-22T09:40:40.686Z,33.08
2023-05-22T09:43:50.783Z,33.52
2023-05-22T09:46:54.686Z,33.46
2023-05-22T09:49:58.754Z,32.08
2023-05-22T09:53:05.849Z,32.12
2023-05-22T09:56:14.702Z,35.05
2023-05-22T09:59:22.113Z,34.97
2023-05-22T10:02:27.321Z,32.40
2023-05-22T10:05:31.637Z,32.46
2023-05-22T10:08:41.941Z,33.93
2023-05-22T10:11:44.447Z,34.66
2023-05-22T10:14:46.768Z,33.91
2023-05-22T10:17:50.011Z,34.99
2023-05-22T10:20:52.839Z,33.58
2023-05-22T10:23:55.826Z,33.46
2023-05-22T10:26:58.211Z,34.73
2023-05-22T10:30:21.210Z,34.48
2023-05-22T10:33:48.755Z,32.67
2023-05-22T10:37:09.582Z,34.43
2023-05-22T10:40:22.273Z,32.49
2023-05-22T10:43:25.278Z,32.87
2023-05-22T10:46:32.521Z,30.87
2023-05-22T10:49:34.848Z,31.91
2023-05-22T10:52:38.188Z,29.87
2023-05-22T10:55:50.936Z,30.06
2023-05-22T10:58:59.251Z,31.31
2023-05-22T11:02:01.660Z,30.09
2023-05-22T11:05:14.081Z,31.91
2023-05-22T11:08:28.735Z,30.64
2023-05-22T11:11:31.023Z,30.46
2023-05-22T11:14:33.364Z,32.04
2023-05-22T11:17:46.406Z,30.52
2023-05-22T11:20:48.767Z,30.27
2023-05-22T11:23:51.257Z,31.40
2023-05-22T11:27:06.298Z,29.13
2023-05-22T11:30:09.115Z,30.17
2023-05-22T11:33:12.839Z,31.32
2023-05-22T11:36:15.992Z,31.07
2023-05-22T11:39:18.487Z,29.70
2023-05-22T11:42:20.917Z,31.16
2023-05-22T11:45:23.512Z,28.63
2023-05-22T11:48:26.242Z,28.64
2023-05-22T11:51:29.168Z,31.34
2023-05-22T11:54:32.776Z,30.56
2023-05-22T11:57:35.875Z,28.61
2023-05-22T12:00:38.539Z,28.88
2023-05-22T12:03:41.714Z,28.51
2023-05-22T12:06:44.682Z,29.63
2023-05-22T12:09:47.199Z,29.67
2023-05-22T12:12:49.705Z,28.81
2023-05-22T12:15:54.321Z,27.98
2023-05-22T12:18:56.839Z,30.45
2023-05-22T12:21:59.672Z,28.64
2023-05-22T12:25:02.110Z,28.04
2023-05-22T12:28:06.597Z,30.83
2023-05-22T12:31:08.927Z,29.52
2023-05-22T12:34:11.417Z,30.04
2023-05-22T12:37:25.347Z,27.26
2023-05-22T12:40:27.978Z,30.49
2023-05-22T12:43:30.592Z,28.95
2023-05-22T12:46:33.707Z,30.10
2023-05-22T12:49:36.146Z,30.25
2023-05-22T12:52:38.520Z,30.86
2023-05-22T12:55:41.026Z,31.59
2023-05-22T12:58:43.849Z,30.80
2023-05-22T13:01:46.214Z,29.62
2023-05-22T13:04:48.575Z,31.14
2023-05-22T13:07:50.996Z,30.02
2023-05-22T13:10:53.354Z,31.31
2023-05-22T13:13:55.839Z,29.73
2023-05-22T13:16:58.197Z,29.08
2023-05-22T13:20:00.599Z,30.02
2023-05-22T13:23:03.056Z,30.85
2023-05-22T13:26:05.425Z,31.68
2023-05-22T13:29:07.712Z,28.61
2023-05-22T13:32:14.310Z,29.41
2023-05-22T13:35:16.744Z,29.83
2023-05-22T13:38:19.115Z,31.70
2023-05-22T13:41:21.547Z,31.13
2023-05-22T13:44:24.116Z,32.28
2023-05-22T13:47:26.558Z,32.92
2023-05-22T13:50:28.966Z,34.20
2023-05-22T13:53:31.204Z,33.89
2023-05-22T13:56:33.490Z,31.24
2023-05-22T13:59:35.784Z,32.16
2023-05-22T14:10:05.688Z,31.79
2023-05-22T14:13:08.843Z,31.74
2023-05-22T14:16:11.250Z,32.01
2023-05-22T14:19:13.757Z,31.52
2023-05-22T14:22:16.071Z,33.07
2023-05-22T14:25:18.459Z,34.36
2023-05-22T14:28:20.783Z,34.57
2023-05-22T14:31:23.361Z,35.07
2023-05-22T14:34:25.996Z,34.18
2023-05-22T14:38:31.253Z,34.42
2023-05-22T14:40:52.126Z,33.35
2023-05-22T14:43:54.414Z,34.48
2023-05-22T14:46:56.792Z,33.88
2023-05-22T14:50:06.773Z,35.19
2023-05-22T14:53:20.709Z,35.03
2023-05-22T14:56:24.847Z,36.66
2023-05-22T14:59:27.185Z,38.17
2023-05-22T15:02:29.808Z,36.65
2023-05-22T15:05:32.232Z,35.74
2023-05-22T15:08:36.623Z,37.60
2023-05-22T15:11:39.087Z,37.44
2023-05-22T15:14:41.667Z,35.71
2023-05-22T15:17:44.022Z,36.63
2023-05-22T15:20:46.467Z,38.75
2023-05-22T15:23:48.752Z,39.46
2023-05-22T15:26:51.622Z,36.63
2023-05-22T15:29:54.027Z,37.03
2023-05-22T15:32:56.438Z,37.85
2023-05-22T15:35:58.757Z,37.90
2023-05-22T15:39:01.110Z,37.57
2023-05-22T15:42:06.706Z,38.39
2023-05-22T15:45:09.520Z,37.27
2023-05-22T15:48:12.594Z,38.01
2023-05-22T15:51:15.028Z,37.66
2023-05-22T15:54:17.329Z,37.89
2023-05-22T15:57:19.721Z,38.26
2023-05-22T16:00:22.296Z,37.17
2023-05-22T16:03:24.758Z,37.21
2023-05-22T16:06:28.573Z,36.90
2023-05-22T16:09:32.794Z,37.40
2023-05-22T16:12:35.877Z,36.58
2023-05-22T16:15:39.940Z,37.55
2023-05-22T16:18:43.027Z,36.83
2023-05-22T16:21:45.438Z,36.58
2023-05-22T16:24:47.816Z,37.58
2023-05-22T16:27:50.181Z,37.33
2023-05-22T16:30:52.499Z,37.57
2023-05-22T16:33:54.903Z,38.21
2023-05-22T16:36:57.262Z,38.69
2023-05-22T16:39:59.765Z,38.74
2023-05-22T16:43:02.097Z,38.54
2023-05-22T16:46:04.495Z,38.62
2023-05-22T16:49:10.387Z,38.39
2023-05-22T16:52:12.824Z,39.09
2023-05-22T16:55:17.192Z,40.08
2023-05-22T16:58:19.584Z,40.82
2023-05-22T17:01:22.366Z,40.85
2023-05-22T17:04:25.193Z,41.52
2023-05-22T17:07:27.539Z,41.04
2023-05-22T17:10:29.913Z,40.89
2023-05-22T17:13:32.384Z,41.02
2023-05-22T17:16:34.850Z,40.90
2023-05-22T17:19:37.378Z,40.66
2023-05-22T17:22:39.899Z,40.54
2023-05-22T17:25:42.468Z,40.41
2023-05-22T17:28:44.982Z,40.53
2023-05-22T17:31:47.968Z,40.59
2023-05-22T17:34:50.327Z,41.37
2023-05-22T17:37:52.656Z,42.24
2023-05-22T17:40:54.987Z,42.44
2023-05-22T17:44:00.146Z,42.35
2023-05-22T17:47:04.107Z,42.49
2023-05-22T17:50:07.027Z,42.50
2023-05-22T17:53:09.404Z,44.99
2023-05-22T17:56:11.724Z,47.59
2023-05-22T17:59:14.075Z,46.25
2023-05-22T18:02:16.457Z,46.47
2023-05-22T18:05:18.776Z,46.65
2023-05-22T18:08:21.604Z,49.42
2023-05-22T18:11:24.031Z,48.47
2023-05-22T18:14:26.905Z,48.83
2023-05-22T18:17:29.428Z,48.44
2023-05-22T18:20:33.287Z,48.84
2023-05-22T18:23:35.631Z,47.56
2023-05-22T18:26:37.976Z,47.66
2023-05-22T18:29:40.903Z,47.36
2023-05-22T18:32:43.376Z,48.11
2023-05-22T18:35:45.898Z,49.45
2023-05-22T18:38:48.204Z,49.67
2023-05-22T18:41:50.660Z,48.79
2023-05-22T18:44:52.984Z,49.37
2023-05-22T18:47:55.515Z,51.86
2023-05-22T18:50:59.026Z,50.98
2023-05-22T18:54:01.525Z,51.90
2023-05-22T18:57:04.131Z,52.15
2023-05-22T19:00:08.048Z,52.38
2023-05-22T19:03:11.609Z,52.06
2023-05-22T19:06:14.034Z,53.75
2023-05-22T19:09:16.723Z,53.94
2023-05-22T19:12:19.261Z,54.19
2023-05-22T19:15:21.641Z,53.86
2023-05-22T19:18:24.676Z,54.33
2023-05-22T19:21:27.015Z,54.26
2023-05-22T19:24:29.350Z,54.45
2023-05-22T19:27:31.748Z,54.96
2023-05-22T19:30:34.020Z,55.25
2023-05-22T19:33:36.628Z,54.48
2023-05-22T19:36:38.997Z,55.52
2023-05-22T19:39:41.357Z,55.58
2023-05-22T19:42:43.806Z,56.81
2023-05-22T19:45:46.262Z,57.19
2023-05-22T19:48:48.717Z,56.91
2023-05-22T19:51:51.066Z,57.73
2023-05-22T19:54:53.570Z,58.00
2023-05-22T19:57:56.075Z,58.35
2023-05-22T20:00:58.369Z,58.72
2023-05-22T20:04:01.295Z,58.58
2023-05-22T20:07:05.667Z,58.26
2023-05-22T20:10:10.184Z,58.37
2023-05-22T20:13:12.491Z,59.21
2023-05-22T20:16:16.018Z,59.57
2023-05-22T20:19:18.977Z,59.74
2023-05-22T20:22:21.365Z,59.66
2023-05-22T20:25:23.850Z,59.63
2023-05-22T20:28:26.454Z,59.95
2023-05-22T20:31:28.842Z,60.85
2023-05-22T20:34:32.246Z,60.88
2023-05-22T20:37:35.161Z,60.75
2023-05-22T20:40:37.896Z,61.09
2023-05-22T20:43:43.503Z,61.05
2023-05-22T20:46:46.013Z,61.03
2023-05-22T20:49:48.262Z,61.51
2023-05-22T20:52:50.839Z,61.48
2023-05-22T20:55:53.399Z,62.18
2023-05-22T20:58:56.307Z,61.32
2023-05-22T21:01:58.711Z,62.17
2023-05-22T21:05:01.084Z,62.10
2023-05-22T21:08:03.816Z,61.87
2023-05-22T21:11:07.520Z,61.81
2023-05-22T21:14:10.024Z,62.01
2023-05-22T21:17:12.479Z,61.26
2023-05-22T21:20:14.876Z,62.06
2023-05-22T21:23:17.242Z,62.05
2023-05-22T21:26:22.457Z,62.52
2023-05-22T21:29:25.018Z,62.34
2023-05-22T21:32:27.551Z,62.28
2023-05-22T21:35:29.976Z,62.31
2023-05-22T21:38:32.655Z,62.64
2023-05-22T21:41:35.192Z,62.57
2023-05-22T21:44:37.684Z,63.24
2023-05-22T21:47:40.191Z,62.58
2023-05-22T21:50:42.661Z,61.88
2023-05-22T21:53:45.572Z,61.77
2023-05-22T21:56:48.045Z,62.77
2023-05-22T21:59:51.375Z,62.47
2023-05-22T22:02:54.161Z,61.75
2023-05-22T22:05:56.600Z,61.40
2023-05-22T22:09:00.399Z,61.97
2023-05-22T22:12:02.742Z,61.02
2023-05-22T22:15:05.439Z,61.30
2023-05-22T22:18:07.814Z,61.02
2023-05-22T22:21:10.567Z,61.37
2023-05-22T22:24:13.369Z,61.01
2023-05-22T22:27:15.830Z,61.70
2023-05-22T22:30:18.209Z,61.42
2023-05-22T22:33:24.800Z,60.81
2023-05-22T22:36:27.065Z,61.52
2023-05-22T22:39:29.411Z,60.90
2023-05-22T22:42:34.489Z,60.56
2023-05-22T22:45:36.942Z,60.48
2023-05-22T22:48:42.169Z,60.79
2023-05-22T22:51:44.991Z,60.94
2023-05-22T22:54:47.318Z,60.85
2023-05-22T22:57:50.241Z,61.38
2023-05-22T23:00:52.778Z,60.85
2023-05-22T23:03:55.271Z,61.23
2023-05-22T23:07:00.344Z,60.95
2023-05-22T23:10:02.903Z,61.33
2023-05-22T23:13:05.336Z,62.18
2023-05-22T23:16:07.705Z,62.34
2023-05-22T23:19:11.004Z,61.87
2023-05-22T23:22:13.582Z,61.37
2023-05-22T23:25:15.973Z,62.07
2023-05-22T23:28:18.527Z,61.80
2023-05-22T23:31:26.063Z,62.57
2023-05-22T23:34:28.678Z,62.92
2023-05-22T23:37:31.091Z,62.10
2023-05-22T23:40:33.512Z,62.40
2023-05-22T23:43:36.028Z,62.31
2023-05-22T23:46:39.978Z,62.56
2023-05-22T23:49:42.415Z,62.56
2023-05-22T23:52:44.961Z,62.88
2023-05-22T23:55:47.258Z,63.31
2023-05-22T23:58:49.607Z,62.89
